createdAt,value
2023-03-13T00:02:03.664Z,23.13
2023-03-13T00:04:32.047Z,40.40
2023-03-13T00:07:00.250Z,21.63
2023-03-13T00:09:28.586Z,32.22
2023-03-13T00:11:56.863Z,28.33
2023-03-13T00:14:25.173Z,24.55
2023-03-13T00:16:54.850Z,23.45
2023-03-13T00:19:23.197Z,25.45
2023-03-13T00:21:51.539Z,25.70
2023-03-13T00:24:19.914Z,21.27
2023-03-13T00:26:48.202Z,23.02
2023-03-13T00:29:16.602Z,22.95
2023-03-13T00:31:44.866Z,25.25
2023-03-13T00:34:14.608Z,21.67
2023-03-13T00:36:42.890Z,23.00
2023-03-13T00:39:11.233Z,23.25
2023-03-13T00:41:39.531Z,29.23
2023-03-13T00:44:08.297Z,25.92
2023-03-13T00:46:36.851Z,21.90
2023-03-13T00:49:05.620Z,24.38
2023-03-13T00:51:36.915Z,18.30
2023-03-13T00:54:05.535Z,18.27
2023-03-13T00:56:34.806Z,21.40
2023-03-13T00:59:03.273Z,28.88
2023-03-13T01:01:33.483Z,25.75
2023-03-13T01:04:04.058Z,17.95
2023-03-13T01:06:34.473Z,23.20
2023-03-13T01:09:05.817Z,18.50
2023-03-13T01:11:36.918Z,22.00
2023-03-13T01:14:07.987Z,19.35
2023-03-13T01:16:38.120Z,19.38
2023-03-13T01:19:08.904Z,21.98
2023-03-13T01:21:38.139Z,18.88
2023-03-13T01:24:08.578Z,18.30
2023-03-13T01:26:37.067Z,18.85
2023-03-13T01:29:05.712Z,17.67
2023-03-13T01:31:35.631Z,18.05
2023-03-13T01:34:05.934Z,21.83
2023-03-13T01:36:36.436Z,20.00
2023-03-13T01:39:05.997Z,25.15
2023-03-13T01:41:36.084Z,22.30
2023-03-13T01:44:04.734Z,25.02
2023-03-13T01:46:39.202Z,15.57
2023-03-13T01:49:39.746Z,20.17
2023-03-13T01:52:17.983Z,15.95
2023-03-13T01:54:54.509Z,15.30
2023-03-13T01:57:28.213Z,27.00
2023-03-13T02:00:01.690Z,17.38
2023-03-13T02:02:30.650Z,16.27
2023-03-13T02:05:02.706Z,12.32
2023-03-13T02:07:36.443Z,15.90
2023-03-13T02:10:05.874Z,15.40
2023-03-13T02:12:38.127Z,13.93
2023-03-13T02:15:11.601Z,15.82
2023-03-13T02:17:41.030Z,15.57
2023-03-13T02:20:11.085Z,13.63
2023-03-13T02:22:47.881Z,20.90
2023-03-13T02:25:25.289Z,15.73
2023-03-13T02:28:02.915Z,14.40
2023-03-13T02:30:34.849Z,15.35
2023-03-13T02:33:05.593Z,16.40
2023-03-13T02:35:37.777Z,14.45
2023-03-13T02:38:14.654Z,14.25
2023-03-13T02:40:46.577Z,16.35
2023-03-13T02:43:19.983Z,15.38
2023-03-13T02:46:03.013Z,22.73
2023-03-13T02:48:35.480Z,12.23
2023-03-13T02:51:10.505Z,13.52
2023-03-13T02:53:39.094Z,15.57
2023-03-13T02:56:08.477Z,17.38
2023-03-13T02:58:49.251Z,23.27
2023-03-13T03:01:20.108Z,20.00
2023-03-13T03:03:48.906Z,16.95
2023-03-13T03:06:17.273Z,17.42
2023-03-13T03:08:47.502Z,16.15
2023-03-13T03:11:16.040Z,23.23
2023-03-13T03:13:49.019Z,19.15
2023-03-13T03:16:19.738Z,18.42
2023-03-13T03:18:48.622Z,17.58
2023-03-13T03:21:17.318Z,15.85
2023-03-13T03:23:45.764Z,21.30
2023-03-13T03:26:14.313Z,17.73
2023-03-13T03:28:42.612Z,22.25
2023-03-13T03:31:16.759Z,25.00
2023-03-13T03:33:45.980Z,16.67
2023-03-13T03:36:18.336Z,18.13
2023-03-13T03:38:47.706Z,16.52
2023-03-13T03:41:20.260Z,17.35
2023-03-13T03:43:49.350Z,25.05
2023-03-13T03:46:23.393Z,18.50
2023-03-13T03:48:51.848Z,16.33
2023-03-13T03:51:20.124Z,17.27
2023-03-13T03:53:49.311Z,14.65
2023-03-13T03:56:17.680Z,16.38
2023-03-13T03:58:52.524Z,21.42
2023-03-13T04:01:45.473Z,20.67
2023-03-13T04:04:15.324Z,19.38
2023-03-13T04:06:46.676Z,18.35
2023-03-13T04:09:15.470Z,18.77
2023-03-13T04:11:43.816Z,19.63
2023-03-13T04:14:13.720Z,22.70
2023-03-13T04:16:42.252Z,19.55
2023-03-13T04:19:12.430Z,18.92
2023-03-13T04:21:40.780Z,21.73
2023-03-13T04:24:16.564Z,19.25
2023-03-13T04:26:46.261Z,22.88
2023-03-13T04:29:15.836Z,17.33
2023-03-13T04:31:56.081Z,22.13
2023-03-13T04:34:41.978Z,17.73
2023-03-13T04:37:23.823Z,28.98
2023-03-13T04:40:14.599Z,17.38
2023-03-13T04:43:02.831Z,18.58
2023-03-13T04:45:47.909Z,21.23
2023-03-13T04:48:40.556Z,20.60
2023-03-13T04:51:26.684Z,22.55
2023-03-13T04:54:10.833Z,25.23
2023-03-13T04:56:57.099Z,22.08
2023-03-13T04:59:36.794Z,22.25
2023-03-13T05:02:25.318Z,24.13
2023-03-13T05:05:06.759Z,26.48
2023-03-13T05:07:54.862Z,21.27
2023-03-13T05:10:38.621Z,20.13
2023-03-13T05:13:25.629Z,21.42
2023-03-13T05:15:54.024Z,23.70
2023-03-13T05:18:41.501Z,21.30
2023-03-13T05:21:39.606Z,26.98
2023-03-13T05:24:27.632Z,27.00
2023-03-13T05:27:18.788Z,25.42
2023-03-13T05:30:19.386Z,29.30
2023-03-13T05:33:04.386Z,21.38
2023-03-13T05:36:03.205Z,21.77
2023-03-13T05:38:57.650Z,21.13
2023-03-13T05:41:39.085Z,25.20
2023-03-13T05:44:26.066Z,22.85
2023-03-13T05:46:54.297Z,22.23
2023-03-13T05:49:41.283Z,27.45
2023-03-13T05:52:32.434Z,22.38
2023-03-13T05:55:12.073Z,26.95
2023-03-13T05:58:17.170Z,30.08
2023-03-13T06:00:53.311Z,27.42
2023-03-13T06:03:38.484Z,23.70
2023-03-13T06:06:07.613Z,24.17
2023-03-13T06:08:41.422Z,22.67
2023-03-13T06:11:09.871Z,20.95
2023-03-13T06:13:40.259Z,25.52
2023-03-13T06:16:21.121Z,25.92
2023-03-13T06:18:50.351Z,27.83
2023-03-13T06:21:18.742Z,22.92
2023-03-13T06:23:47.100Z,25.67
2023-03-13T06:26:15.371Z,29.77
2023-03-13T06:28:45.214Z,28.30
2023-03-13T06:31:13.599Z,31.15
2023-03-13T06:33:41.959Z,26.38
2023-03-13T06:36:10.679Z,26.48
2023-03-13T06:38:38.931Z,27.95
2023-03-13T06:41:07.187Z,29.02
2023-03-13T06:43:35.521Z,31.02
2023-03-13T06:46:06.848Z,29.02
2023-03-13T06:48:35.288Z,26.58
2023-03-13T06:51:03.590Z,24.98
2023-03-13T06:53:31.901Z,25.00
2023-03-13T06:56:02.422Z,27.67
2023-03-13T06:58:32.839Z,25.42
2023-03-13T07:01:01.758Z,28.73
2023-03-13T07:03:31.526Z,27.38
2023-03-13T07:06:00.678Z,42.08
2023-03-13T07:08:29.571Z,31.58
2023-03-13T07:11:01.711Z,29.17
2023-03-13T07:13:30.503Z,34.80
2023-03-13T07:16:01.997Z,29.40
2023-03-13T07:18:32.068Z,33.53
2023-03-13T07:21:05.000Z,36.53
2023-03-13T07:23:34.507Z,32.38
2023-03-13T07:26:05.449Z,33.45
2023-03-13T07:28:37.576Z,29.52
2023-03-13T07:31:08.527Z,25.77
2023-03-13T07:33:38.287Z,36.28
2023-03-13T07:36:07.682Z,27.17
2023-03-13T07:38:36.292Z,31.52
2023-03-13T07:41:05.553Z,28.77
2023-03-13T07:43:34.279Z,35.78
2023-03-13T07:46:06.038Z,23.13
2023-03-13T07:48:36.517Z,27.52
2023-03-13T07:51:07.903Z,32.78
2023-03-13T07:53:36.640Z,26.75
2023-03-13T07:56:07.695Z,31.58
2023-03-13T07:58:38.469Z,32.28
2023-03-13T08:01:11.162Z,32.10
2023-03-13T08:03:40.103Z,24.98
2023-03-13T08:06:12.140Z,31.35
2023-03-13T08:08:41.185Z,26.55
2023-03-13T08:11:11.461Z,21.85
2023-03-13T08:13:41.391Z,28.13
2023-03-13T08:16:11.798Z,29.98
2023-03-13T08:18:42.296Z,24.75
2023-03-13T08:21:14.778Z,32.22
2023-03-13T08:23:43.374Z,19.48
2023-03-13T08:26:13.706Z,20.92
2023-03-13T08:28:42.970Z,24.25
2023-03-13T08:31:13.292Z,18.60
2023-03-13T08:33:43.571Z,21.45
2023-03-13T08:36:18.792Z,20.23
2023-03-13T08:38:47.888Z,22.95
2023-03-13T08:41:17.971Z,28.00
2023-03-13T08:43:46.695Z,20.63
2023-03-13T08:46:18.539Z,15.90
2023-03-13T08:48:51.417Z,19.30
2023-03-13T08:51:23.577Z,22.25
2023-03-13T08:53:53.039Z,22.13
2023-03-13T08:56:23.499Z,18.55
2023-03-13T08:58:52.616Z,16.85
2023-03-13T09:01:22.111Z,16.65
2023-03-13T09:03:50.491Z,23.88
2023-03-13T09:06:20.282Z,23.38
2023-03-13T09:08:48.691Z,25.27
2023-03-13T09:11:19.318Z,15.40
2023-03-13T09:13:49.054Z,20.92
2023-03-13T09:16:19.042Z,19.48
2023-03-13T09:18:48.623Z,19.67
2023-03-13T09:21:18.668Z,19.48
2023-03-13T09:23:48.542Z,18.65
2023-03-13T09:26:20.939Z,14.52
2023-03-13T09:28:50.790Z,20.73
2023-03-13T09:31:21.582Z,19.98
2023-03-13T09:33:51.560Z,16.35
2023-03-13T09:36:22.644Z,17.80
2023-03-13T09:39:01.808Z,15.13
2023-03-13T09:41:36.297Z,15.88
2023-03-13T09:44:11.917Z,16.23
2023-03-13T09:46:46.345Z,17.70
2023-03-13T09:49:24.264Z,15.30
2023-03-13T09:51:59.633Z,16.70
2023-03-13T09:54:33.774Z,13.52
2023-03-13T09:57:08.115Z,21.60
2023-03-13T09:59:50.241Z,22.85
2023-03-13T10:02:25.807Z,18.00
2023-03-13T10:05:01.907Z,15.60
2023-03-13T10:07:30.549Z,15.48
2023-03-13T10:10:02.439Z,16.20
2023-03-13T10:12:36.717Z,15.38
2023-03-13T10:15:29.214Z,15.93
2023-03-13T10:17:58.657Z,16.70
2023-03-13T10:20:28.605Z,15.77
2023-03-13T10:23:02.107Z,17.10
2023-03-13T10:25:35.331Z,13.35
2023-03-13T10:28:03.935Z,14.80
2023-03-13T10:30:35.432Z,22.55
2023-03-13T10:33:23.519Z,13.85
2023-03-13T10:36:08.933Z,15.48
2023-03-13T10:38:50.954Z,16.13
2023-03-13T10:41:37.208Z,18.85
2023-03-13T10:44:08.390Z,15.23
2023-03-13T10:46:41.680Z,12.50
2023-03-13T10:49:17.719Z,16.40
2023-03-13T10:51:49.844Z,15.18
2023-03-13T10:54:24.243Z,12.40
2023-03-13T10:57:09.263Z,18.00
2023-03-13T10:59:43.509Z,13.27
2023-03-13T11:02:24.651Z,11.32
2023-03-13T11:04:54.060Z,23.83
2023-03-13T11:07:27.397Z,15.32
2023-03-13T11:10:04.313Z,15.70
2023-03-13T11:12:36.813Z,16.77
2023-03-13T11:15:14.322Z,15.98
2023-03-13T11:17:43.135Z,12.90
2023-03-13T11:20:22.346Z,17.70
2023-03-13T11:22:58.439Z,17.15
2023-03-13T11:25:33.290Z,14.48
2023-03-13T11:28:22.332Z,15.23
2023-03-13T11:31:14.383Z,12.20
2023-03-13T11:33:53.430Z,13.25
2023-03-13T11:36:27.686Z,15.43
2023-03-13T11:39:02.916Z,14.50
2023-03-13T11:41:52.600Z,9.23
2023-03-13T11:44:30.784Z,11.15
2023-03-13T11:47:15.297Z,11.80
2023-03-13T11:50:01.326Z,10.77
2023-03-13T11:52:42.070Z,11.63
2023-03-13T11:55:35.904Z,12.93
2023-03-13T11:58:18.789Z,11.65
2023-03-13T12:00:54.706Z,12.88
2023-03-13T12:03:32.799Z,11.25
2023-03-13T12:06:03.632Z,16.48
2023-03-13T12:08:39.055Z,13.77
2023-03-13T12:11:15.098Z,15.70
2023-03-13T12:13:47.321Z,9.90
2023-03-13T12:16:20.881Z,10.32
2023-03-13T12:18:51.592Z,16.00
2023-03-13T12:21:24.658Z,14.07
2023-03-13T12:24:01.994Z,18.55
2023-03-13T12:26:38.374Z,13.43
2023-03-13T12:29:14.966Z,12.18
2023-03-13T12:31:51.928Z,15.10
2023-03-13T12:34:25.027Z,19.40
2023-03-13T12:37:03.066Z,11.65
2023-03-13T12:39:36.880Z,10.85
2023-03-13T12:42:21.105Z,19.95
2023-03-13T12:44:49.810Z,14.15
2023-03-13T12:47:22.963Z,13.52
2023-03-13T12:50:25.421Z,16.80
2023-03-13T12:53:25.894Z,12.35
2023-03-13T12:56:27.864Z,18.30
2023-03-13T12:58:59.531Z,15.90
2023-03-13T13:01:33.125Z,18.20
2023-03-13T13:04:06.542Z,11.95
2023-03-13T13:06:55.348Z,15.27
2023-03-13T13:09:28.105Z,14.23
2023-03-13T13:11:59.221Z,16.88
2023-03-13T13:15:04.213Z,16.35
2023-03-13T13:18:04.914Z,17.38
2023-03-13T13:20:38.308Z,8.95
2023-03-13T13:23:37.657Z,12.05
2023-03-13T13:26:48.769Z,12.93
2023-03-13T13:29:57.149Z,14.02
2023-03-13T13:32:34.615Z,17.83
2023-03-13T13:35:06.603Z,12.25
2023-03-13T13:37:36.728Z,18.50
2023-03-13T13:40:24.311Z,10.15
2023-03-13T13:42:55.277Z,13.95
2023-03-13T13:45:26.865Z,15.57
2023-03-13T13:48:38.719Z,17.30
2023-03-13T13:51:28.645Z,17.48
2023-03-13T13:54:03.086Z,18.95
2023-03-13T13:56:42.324Z,18.58
2023-03-13T13:59:40.381Z,19.98
2023-03-13T14:02:26.013Z,16.77
2023-03-13T14:05:01.270Z,18.73
2023-03-13T14:07:33.430Z,23.70
2023-03-13T14:10:08.610Z,21.48
2023-03-13T14:12:38.701Z,19.50
2023-03-13T14:15:14.905Z,24.08
2023-03-13T14:17:45.879Z,12.38
2023-03-13T14:20:25.219Z,18.33
2023-03-13T14:22:54.496Z,21.02
2023-03-13T14:25:25.977Z,22.20
2023-03-13T14:27:56.312Z,18.02
2023-03-13T14:30:27.256Z,16.90
2023-03-13T14:32:55.742Z,19.80
2023-03-13T14:35:24.194Z,14.15
2023-03-13T14:37:54.568Z,20.05
2023-03-13T14:40:27.648Z,18.33
2023-03-13T14:42:58.643Z,16.80
2023-03-13T14:45:30.734Z,13.07
2023-03-13T14:48:04.728Z,21.17
2023-03-13T14:50:33.575Z,15.43
2023-03-13T14:53:05.422Z,15.98
2023-03-13T14:55:40.435Z,18.08
2023-03-13T14:58:28.132Z,20.52
2023-03-13T15:00:58.941Z,13.18
2023-03-13T15:03:33.017Z,15.32
2023-03-13T15:06:16.817Z,13.32
2023-03-13T15:08:46.724Z,18.33
2023-03-13T15:11:27.716Z,16.73
2023-03-13T15:13:57.158Z,16.75
2023-03-13T15:16:26.424Z,18.08
2023-03-13T15:18:56.289Z,19.95
2023-03-13T15:21:27.668Z,16.80
2023-03-13T15:23:59.653Z,17.52
2023-03-13T15:26:30.142Z,16.65
2023-03-13T15:28:58.520Z,19.08
2023-03-13T15:31:29.877Z,13.40
2023-03-13T15:34:00.654Z,18.23
2023-03-13T15:36:30.756Z,14.13
2023-03-13T15:38:59.131Z,22.85
2023-03-13T15:41:28.935Z,17.42
2023-03-13T15:43:57.454Z,21.77
2023-03-13T15:46:27.329Z,13.68
2023-03-13T15:48:55.740Z,12.80
2023-03-13T15:51:24.086Z,15.73
2023-03-13T15:53:53.554Z,15.07
2023-03-13T15:56:24.477Z,15.20
2023-03-13T15:58:54.555Z,12.93
2023-03-13T16:01:23.346Z,16.25
2023-03-13T16:03:51.777Z,16.88
2023-03-13T16:06:28.214Z,14.40
2023-03-13T16:08:57.630Z,11.07
2023-03-13T16:11:26.018Z,19.13
2023-03-13T16:13:56.145Z,12.88
2023-03-13T16:16:28.627Z,21.83
2023-03-13T16:18:58.352Z,14.27
2023-03-13T16:21:28.608Z,15.07
2023-03-13T16:23:57.113Z,21.98
2023-03-13T16:26:27.152Z,14.27
2023-03-13T16:28:57.794Z,18.33
2023-03-13T16:31:28.813Z,14.30
2023-03-13T16:33:58.101Z,14.38
2023-03-13T16:36:29.607Z,17.10
2023-03-13T16:38:58.590Z,13.48
2023-03-13T16:41:28.562Z,17.25
2023-03-13T16:44:04.292Z,12.85
2023-03-13T16:46:37.608Z,20.33
2023-03-13T16:49:06.496Z,11.15
2023-03-13T16:51:35.065Z,14.25
2023-03-13T16:54:03.720Z,18.05
2023-03-13T16:56:34.787Z,18.52
2023-03-13T16:59:08.727Z,13.77
2023-03-13T17:01:37.678Z,10.63
2023-03-13T17:04:06.535Z,17.63
2023-03-13T17:06:37.221Z,13.88
2023-03-13T17:09:07.812Z,13.85
2023-03-13T17:11:36.198Z,14.30
2023-03-13T17:14:06.028Z,14.55
2023-03-13T17:16:36.309Z,8.90
2023-03-13T17:19:06.566Z,13.18
2023-03-13T17:21:35.243Z,16.50
2023-03-13T17:24:04.197Z,16.23
2023-03-13T17:26:35.449Z,12.70
2023-03-13T17:29:06.548Z,13.32
2023-03-13T17:31:38.393Z,11.63
2023-03-13T17:34:07.547Z,13.35
2023-03-13T17:36:36.192Z,18.40
2023-03-13T17:39:06.390Z,18.90
2023-03-13T17:41:36.321Z,13.23
2023-03-13T17:44:07.317Z,17.00
2023-03-13T17:46:39.242Z,10.88
2023-03-13T17:49:08.776Z,10.15
2023-03-13T17:51:37.629Z,13.45
2023-03-13T17:54:06.278Z,14.38
2023-03-13T17:56:38.806Z,11.48
2023-03-13T17:59:13.609Z,10.40
2023-03-13T18:01:42.282Z,11.00
2023-03-13T18:04:11.401Z,13.65
2023-03-13T18:06:42.523Z,12.77
2023-03-13T18:09:15.926Z,12.90
2023-03-13T18:11:44.497Z,8.82
2023-03-13T18:14:14.341Z,11.15
2023-03-13T18:16:47.985Z,12.35
2023-03-13T18:19:20.549Z,12.75
2023-03-13T18:21:52.218Z,11.00
2023-03-13T18:24:21.346Z,17.13
2023-03-13T18:26:51.644Z,9.55
2023-03-13T18:29:26.618Z,17.00
2023-03-13T18:32:00.527Z,9.65
2023-03-13T18:34:29.603Z,9.73
2023-03-13T18:37:03.777Z,7.68
2023-03-13T18:39:32.733Z,12.57
2023-03-13T18:42:02.154Z,8.88
2023-03-13T18:44:31.868Z,10.45
2023-03-13T18:47:00.172Z,11.73
2023-03-13T18:49:28.567Z,12.98
2023-03-13T18:51:56.809Z,10.27
2023-03-13T18:54:25.158Z,10.95
2023-03-13T18:56:56.897Z,7.13
2023-03-13T18:59:26.196Z,12.45
2023-03-13T19:01:56.207Z,10.20
2023-03-13T19:04:24.520Z,11.45
2023-03-13T19:06:53.332Z,14.00
2023-03-13T19:12:12.523Z,16.75
2023-03-13T19:14:40.868Z,18.20
2023-03-13T19:17:17.388Z,13.10
2023-03-13T19:19:45.578Z,13.70
2023-03-13T19:22:15.338Z,13.70
2023-03-13T19:24:43.714Z,13.07
2023-03-13T19:27:14.949Z,16.10
2023-03-13T19:29:47.371Z,9.38
2023-03-13T19:32:18.988Z,11.52
2023-03-13T19:34:47.685Z,10.85
2023-03-13T19:37:18.951Z,15.13
2023-03-13T19:39:47.441Z,10.48
2023-03-13T19:42:15.833Z,8.88
2023-03-13T19:44:44.466Z,11.80
2023-03-13T19:47:16.675Z,11.73
2023-03-13T19:49:49.846Z,10.38
2023-03-13T19:52:19.286Z,11.90
2023-03-13T19:54:49.758Z,11.80
2023-03-13T19:57:18.030Z,11.20
2023-03-13T19:59:49.910Z,15.70
2023-03-13T20:02:19.709Z,11.50
2023-03-13T20:04:50.941Z,11.77
2023-03-13T20:07:19.326Z,12.18
2023-03-13T20:09:47.603Z,12.88
2023-03-13T20:12:15.976Z,15.82
2023-03-13T20:14:44.284Z,10.63
2023-03-13T20:17:12.699Z,13.93
2023-03-13T20:19:42.484Z,10.90
2023-03-13T20:22:10.867Z,10.80
2023-03-13T20:24:39.471Z,13.70
2023-03-13T20:27:08.025Z,10.70
2023-03-13T20:29:36.342Z,10.90
2023-03-13T20:32:05.988Z,9.63
2023-03-13T20:34:35.032Z,12.25
2023-03-13T20:37:04.770Z,11.95
2023-03-13T20:39:33.188Z,11.48
2023-03-13T20:42:03.086Z,11.00
2023-03-13T20:44:31.789Z,12.98
2023-03-13T20:47:00.390Z,12.65
2023-03-13T20:49:28.961Z,11.02
2023-03-13T20:51:57.454Z,10.57
2023-03-13T20:54:27.853Z,11.23
2023-03-13T20:56:58.227Z,11.43
2023-03-13T20:59:26.616Z,12.88
2023-03-13T21:01:54.868Z,11.18
2023-03-13T21:04:23.392Z,14.57
2023-03-13T21:06:54.272Z,11.50
2023-03-13T21:09:22.662Z,12.13
2023-03-13T21:11:52.778Z,13.57
2023-03-13T21:14:21.961Z,10.02
2023-03-13T21:16:51.263Z,10.60
2023-03-13T21:19:20.195Z,13.02
2023-03-13T21:21:49.794Z,11.93
2023-03-13T21:24:18.986Z,15.32
2023-03-13T21:26:47.580Z,11.50
2023-03-13T21:29:17.543Z,12.35
2023-03-13T21:31:46.141Z,10.98
2023-03-13T21:34:14.691Z,14.88
2023-03-13T21:36:43.122Z,15.55
2023-03-13T21:39:12.652Z,8.27
2023-03-13T21:41:40.899Z,10.85
2023-03-13T21:44:09.308Z,11.68
2023-03-13T21:46:39.127Z,11.63
2023-03-13T21:49:07.586Z,12.27
2023-03-13T21:51:36.001Z,12.65
2023-03-13T21:54:04.483Z,12.20
2023-03-13T21:56:32.960Z,13.05
2023-03-13T21:59:01.395Z,9.98
2023-03-13T22:01:29.772Z,8.38
2023-03-13T22:03:59.598Z,11.43
2023-03-13T22:06:28.029Z,14.68
2023-03-13T22:08:56.509Z,9.10
2023-03-13T22:11:24.888Z,9.73
2023-03-13T22:13:53.281Z,11.07
2023-03-13T22:16:25.379Z,11.48
2023-03-13T22:18:54.166Z,12.98
2023-03-13T22:21:24.005Z,10.95
2023-03-13T22:23:52.328Z,10.38
2023-03-13T22:26:20.738Z,11.27
2023-03-13T22:28:49.080Z,12.57
2023-03-13T22:31:18.645Z,10.55
2023-03-13T22:33:47.180Z,10.35
2023-03-13T22:36:17.344Z,9.68
2023-03-13T22:38:47.227Z,12.38
2023-03-13T22:41:17.947Z,10.80
2023-03-13T22:43:46.393Z,11.60
2023-03-13T22:46:15.567Z,14.35
2023-03-13T22:48:43.974Z,10.45
2023-03-13T22:51:14.113Z,12.00
2023-03-13T22:53:42.967Z,11.57
2023-03-13T22:56:13.533Z,13.02
2023-03-13T22:58:42.307Z,13.65
2023-03-13T23:01:12.511Z,13.60
2023-03-13T23:03:40.931Z,9.45
2023-03-13T23:06:11.115Z,12.25
2023-03-13T23:08:39.390Z,10.82
2023-03-13T23:11:08.188Z,14.95
2023-03-13T23:13:38.288Z,13.38
2023-03-13T23:16:07.893Z,15.18
2023-03-13T23:18:36.552Z,12.05
2023-03-13T23:21:06.982Z,12.05
2023-03-13T23:23:35.527Z,12.45
2023-03-13T23:26:05.763Z,13.30
2023-03-13T23:28:35.105Z,13.05
2023-03-13T23:31:12.199Z,14.20
2023-03-13T23:33:40.641Z,11.98
2023-03-13T23:36:10.920Z,12.13
2023-03-13T23:38:39.384Z,14.70
2023-03-13T23:41:08.520Z,11.48
2023-03-13T23:43:37.162Z,14.07
2023-03-13T23:46:06.753Z,12.65
2023-03-13T23:48:40.654Z,15.45
2023-03-13T23:51:09.600Z,11.90
2023-03-13T23:53:38.548Z,13.82
2023-03-13T23:56:07.550Z,10.70
2023-03-13T23:58:35.900Z,11.02
